Ellsworth AFB, SD

1:26 AM MDT on May 24, 2017 (GMT -0600)
Ellsworth Air Force Base

Weather History for KRCA - December, 2012

Change the Weather History Date:

Sunday, December 9, 2012

  Actual Average Record
Temperature  
Mean Temperature 8 °F -  
Max Temperature 13 °F 40 °F 67 °F (2015)
Min Temperature 2 °F 19 °F -8 °F (2013)
Degree Days  
Heating Degree Days 56    
Moisture  
Dew Point 1 °F    
Average Humidity 71    
Maximum Humidity 79    
Minimum Humidity 46    
Precipitation  
Precipitation 0.00 in - - ()
Sea Level Pressure  
Sea Level Pressure 30.24 in    
Wind  
Wind Speed 30 mph (NNW)    
Max Wind Speed 41 mph    
Max Gust Speed 52 mph    
Visibility 7 miles    
Events Snow    
Averages and records for this station are not official NWS values.
T = Trace of Precipitation, MM = Missing Value Source: NWS Daily Summary

Daily Weather History Graph

Daily Weather History Graph

Search for Another Location

Airport or City:

Trip Planner

Search our weather history database for the weather conditions in past years. The results will help you decide how hot, cold, wet, or windy it might be!

Date:

Astronomy

Dec. 09, 2012 Rise Set
Actual Time 7:16 AM MST 4:13 PM MST
Civil Twilight 6:43 AM MST 4:46 PM MST
Nautical Twilight 6:06 AM MST 5:23 PM MST
Astronomical Twilight 5:31 AM MST 5:58 PM MST
Moon 2:45 AM MST (12/9) 1:27 PM MST (12/9)
Length of Visible Light 10h 03m
Length of Day
8h 57m
Waning Crescent, 18% of the Moon is Illuminated
Dec 9
Waning Crescent
Dec 13
New
Dec 19
First Quarter
Dec 28
Full
Jan 4
Last Quarter

Hourly Weather History & Observations

Time (MST) Temp. Windchill Dew Point Humidity Pressure Visibility Wind Dir Wind Speed Gust Speed Precip Events Conditions
12:03 AM 10.4 °F -13.0 °F 3.2 °F 73% 30.11 in 6.0 mi NNW 34.5 mph 43.7 mph N/A Snow Light Snow
12:05 AM 10.4 °F -13.2 °F 3.2 °F 73% 30.11 in 8.0 mi NNW 35.7 mph 44.9 mph N/A   Overcast
12:08 AM 10.4 °F -13.5 °F 3.2 °F 73% 30.11 in 10.0 mi NNW 36.8 mph 47.2 mph N/A   Overcast
12:13 AM 10.4 °F -13.2 °F 1.4 °F 67% 30.10 in 10.0 mi NNW 35.7 mph 47.2 mph N/A   Light Freezing Rain
12:15 AM 10.4 °F -12.3 °F 1.4 °F 67% 30.12 in 10.0 mi NNW 32.2 mph 47.2 mph N/A   Overcast
12:16 AM 10.4 °F -13.2 °F 1.4 °F 67% 30.11 in 10.0 mi NNW 35.7 mph 47.2 mph N/A   Light Freezing Rain
12:17 AM 10.4 °F -13.0 °F 3.2 °F 73% 30.11 in 9.0 mi NNW 34.5 mph 47.2 mph N/A   Overcast
12:27 AM 10.4 °F -12.7 °F 3.2 °F 73% 30.12 in 6.0 mi NNW 33.4 mph 46.0 mph N/A Snow Blowing Snow
12:33 AM 10.4 °F -12.0 °F 3.2 °F 73% 30.12 in 5.0 mi NNW 31.1 mph 41.4 mph N/A Snow Light Snow
12:44 AM 10.4 °F -12.3 °F 3.2 °F 73% 30.13 in 3.0 mi NNW 32.2 mph 47.2 mph N/A Snow Light Snow
12:48 AM 10.4 °F -13.0 °F 3.2 °F 73% 30.12 in 4.0 mi NNW 34.5 mph 47.2 mph N/A Snow Light Snow
12:55 AM 9.1 °F -14.7 °F 2.5 °F 74% 30.14 in 4.0 mi NNW 34.5 mph 47.2 mph 0.00 in Snow Light Snow
1:35 AM 8.6 °F -14.1 °F 3.2 °F 79% 30.15 in 4.0 mi NNW 29.9 mph 40.3 mph N/A Snow Light Snow
1:42 AM 8.6 °F -14.1 °F 3.2 °F 79% 30.15 in 4.0 mi NNW 29.9 mph 43.7 mph N/A Snow Light Snow
1:45 AM 8.6 °F -13.8 °F 3.2 °F 79% 30.15 in 4.0 mi NNW 28.8 mph 43.7 mph N/A Snow Light Snow
1:46 AM 8.6 °F -14.1 °F 3.2 °F 79% 30.15 in 4.0 mi NNW 29.9 mph 43.7 mph N/A Snow Light Snow
1:47 AM 8.6 °F -14.8 °F 3.2 °F 79% 30.15 in 4.0 mi NNW 32.2 mph 43.7 mph N/A Snow Light Snow
1:48 AM 8.6 °F -15.1 °F 3.2 °F 79% 30.15 in 4.0 mi NNW 33.4 mph 41.4 mph N/A Snow Light Snow
1:49 AM 8.6 °F -15.4 °F 3.2 °F 79% 30.15 in 4.0 mi NNW 34.5 mph 43.7 mph N/A Snow Light Snow
1:54 AM 8.6 °F -15.4 °F 3.2 °F 79% 30.15 in 3.0 mi NNW 34.5 mph 46.0 mph N/A Snow Light Snow
1:55 AM 8.4 °F -16.0 °F 2.3 °F 76% 30.15 in 3.0 mi NNW 35.7 mph 46.0 mph 0.00 in Snow Light Snow
1:58 AM 8.6 °F -16.3 °F 1.4 °F 73% 30.16 in 3.0 mi NNW 38.0 mph 47.2 mph N/A Snow Light Snow
2:02 AM 8.6 °F -16.0 °F 3.2 °F 79% 30.16 in 3.0 mi NNW 36.8 mph 47.2 mph N/A Snow Light Snow
2:05 AM 8.6 °F -16.8 °F 1.4 °F 73% 30.17 in 2.5 mi NNW 40.3 mph 51.8 mph N/A Snow Light Snow
2:07 AM 8.6 °F -17.1 °F 1.4 °F 73% 30.16 in 3.0 mi NNW 41.4 mph 51.8 mph N/A Snow Light Snow
2:29 AM 8.6 °F -15.7 °F 1.4 °F 73% 30.18 in 4.0 mi NNW 35.7 mph 46.0 mph N/A Snow Light Snow
2:36 AM 8.6 °F -15.7 °F 1.4 °F 73% 30.19 in 4.0 mi NNW 35.7 mph 48.3 mph N/A Snow Light Snow
2:55 AM 7.7 °F -15.7 °F 1.4 °F 75% 30.20 in 5.0 mi NNW 31.1 mph 42.6 mph 0.00 in Snow Blowing Snow
3:55 AM 7.5 °F -15.3 °F 1.4 °F 76% 30.24 in 4.0 mi NNW 28.8 mph 36.8 mph 0.00 in Snow Blowing Snow
4:11 AM 6.8 °F -17.3 °F 1.4 °F 79% 30.25 in 4.0 mi NNW 32.2 mph 41.4 mph N/A Snow Blowing Snow
4:19 AM 6.8 °F -16.9 °F 1.4 °F 79% 30.26 in 4.0 mi NNW 31.1 mph 41.4 mph N/A Snow Blowing Snow
4:22 AM 6.8 °F -16.9 °F 1.4 °F 79% 30.26 in 4.0 mi NNW 31.1 mph 41.4 mph N/A Snow Blowing Snow
4:23 AM 6.8 °F -17.3 °F 1.4 °F 79% 30.26 in 4.0 mi NNW 32.2 mph 41.4 mph N/A Snow Blowing Snow
4:40 AM 6.8 °F -17.3 °F 1.4 °F 79% 30.27 in 3.0 mi NNW 32.2 mph 38.0 mph N/A Snow Light Snow
4:55 AM 6.8 °F -16.2 °F 0.5 °F 75% 30.28 in 4.0 mi NNW 28.8 mph 39.1 mph 0.00 in Snow Blowing Snow
5:33 AM 6.8 °F -15.5 °F -0.4 °F 72% 30.33 in 9.0 mi NNW 26.5 mph 38.0 mph N/A   Overcast
5:36 AM 6.8 °F -16.2 °F -0.4 °F 72% 30.32 in 10.0 mi NNW 28.8 mph 38.0 mph N/A   Light Freezing Rain
5:45 AM 6.8 °F -16.6 °F -0.4 °F 72% 30.33 in 10.0 mi NNW 29.9 mph 38.0 mph N/A   Overcast
5:55 AM 7.2 °F -16.4 °F -0.8 °F 70% 30.34 in 10.0 mi NNW 31.1 mph 36.8 mph 0.00 in   Overcast
6:55 AM 6.3 °F -15.4 °F -3.1 °F 65% 30.41 in 10.0 mi NNW 24.2 mph - N/A   Clear
7:55 AM 6.1 °F -15.2 °F -3.3 °F 65% 30.44 in 10.0 mi NNW 23.0 mph 32.2 mph N/A   Clear
8:55 AM 7.2 °F -14.2 °F -3.5 °F 62% 30.47 in 10.0 mi NNW 24.2 mph 31.1 mph N/A   Clear
9:55 AM 10.2 °F -10.1 °F -1.5 °F 59% 30.49 in 10.0 mi NNW 24.2 mph 31.1 mph N/A   Clear
10:55 AM 11.8 °F -6.7 °F -0.0 °F 59% 30.49 in 10.0 mi NNW 20.7 mph 26.5 mph N/A   Clear
11:55 AM 12.7 °F -3.6 °F -0.9 °F 54% 30.48 in 10.0 mi North 16.1 mph 24.2 mph N/A   Clear
12:55 PM 13.1 °F -3.7 °F -2.2 °F 51% 30.46 in 10.0 mi North 17.3 mph - N/A   Clear
1:55 PM 13.6 °F -1.9 °F -3.6 °F 46% 30.44 in 10.0 mi North 15.0 mph - N/A   Clear
2:55 PM 13.1 °F 2.8 °F -3.3 °F 48% 30.43 in 10.0 mi NNE 6.9 mph - N/A   Clear
3:55 PM 10.8 °F 2.7 °F -2.6 °F 55% 30.43 in 10.0 mi ESE 4.6 mph - N/A   Clear
4:55 PM 6.4 °F -3.9 °F -2.6 °F 67% 30.42 in 10.0 mi SE 5.8 mph - N/A   Clear
5:55 PM 6.1 °F -4.3 °F -2.0 °F 69% 30.39 in 10.0 mi SSE 5.8 mph - N/A   Clear
6:55 PM 7.5 °F -6.0 °F -1.7 °F 66% 30.36 in 10.0 mi South 9.2 mph - N/A   Clear
7:55 PM 7.0 °F -3.3 °F -1.3 °F 69% 30.32 in 10.0 mi South 5.8 mph - N/A   Clear
8:55 PM 6.4 °F -5.2 °F -1.3 °F 71% 30.27 in 10.0 mi South 6.9 mph - N/A   Clear
9:55 PM 4.8 °F -4.3 °F -2.0 °F 73% 30.22 in 10.0 mi SSW 4.6 mph - N/A   Clear
10:55 PM 4.1 °F -8.0 °F -2.2 °F 75% 30.17 in 10.0 mi SSW 6.9 mph - N/A   Clear
11:55 PM 2.7 °F -4.8 °F -3.5 °F 76% 30.13 in 10.0 mi West 3.5 mph - N/A   Clear